Time;durP1;ratioP1;P1;durP2;ratioP2;P2;SDS_P1;SDS_P2;PMS_P1;PMS_P2;Temp;Humidity;BMP_temperature;BMP_pressure;BME280_temperature;BME280_humidity;BME280_pressure;Samples;Min_cycle;Max_cycle;Signal;HPM_P1;HPM_P2
2023/03/23 00:01:13;;;;;;;1.85;1.52;;;;;;;17.13;40.79;98303.28;5076753;28;20031;-49
2023/03/23 00:03:41;;;;;;;2.25;1.30;;;;;;;17.10;40.35;98309.09;5076746;28;20024;-49
2023/03/23 00:06:07;;;;;;;3.03;1.67;;;;;;;17.01;40.46;98309.78;5076754;28;20123;-49
2023/03/23 00:08:37;;;;;;;4.57;1.45;;;;;;;16.98;40.41;98297.81;5076882;28;20027;-49
2023/03/23 00:11:07;;;;;;;2.53;1.40;;;;;;;17.02;40.22;98304.22;5094800;28;20024;-49
2023/03/23 00:13:33;;;;;;;4.63;2.13;;;;;;;17.08;39.77;98303.25;5094760;28;20025;-49
2023/03/23 00:15:59;;;;;;;5.47;2.33;;;;;;;17.10;40.06;98301.13;5094738;28;20023;-49
2023/03/23 00:18:25;;;;;;;4.63;1.80;;;;;;;17.09;39.56;98285.47;5094745;28;20017;-49
2023/03/23 00:20:53;;;;;;;3.13;2.08;;;;;;;16.98;39.61;98287.22;5094590;28;20032;-49
2023/03/23 00:23:22;;;;;;;7.05;2.30;;;;;;;17.00;39.61;98311.63;5076405;28;20497;-49
2023/03/23 00:25:50;;;;;;;8.48;2.30;;;;;;;17.09;39.13;98288.13;5094415;28;20024;-49
2023/03/23 00:28:16;;;;;;;4.88;1.40;;;;;;;17.14;38.84;98285.50;5076214;28;20023;-50
2023/03/23 00:30:44;;;;;;;2.05;1.27;;;;;;;17.21;37.91;98277.34;5076298;28;20111;-49
2023/03/23 00:33:16;;;;;;;3.55;1.40;;;;;;;17.21;37.64;98280.00;5094403;28;20031;-49
2023/03/23 00:35:44;;;;;;;2.20;1.15;;;;;;;17.32;36.54;98297.59;5094323;28;20079;-49
2023/03/23 00:38:10;;;;;;;3.80;1.30;;;;;;;17.26;37.48;98309.19;5093079;28;20028;-49
2023/03/23 00:40:36;;;;;;;4.45;1.67;;;;;;;17.24;38.07;98282.94;5094244;28;20055;-49
2023/03/23 00:43:03;;;;;;;2.95;1.10;;;;;;;17.29;37.40;98285.63;5094063;28;20016;-49
2023/03/23 00:45:29;;;;;;;3.38;1.52;;;;;;;17.30;37.65;98287.22;5094343;28;20031;-49
2023/03/23 00:47:56;;;;;;;4.88;1.50;;;;;;;17.20;37.34;98294.31;5094147;28;20285;-49
2023/03/23 00:50:22;;;;;;;1.52;1.00;;;;;;;17.22;36.78;98284.25;5093743;28;20036;-49
2023/03/23 00:52:50;;;;;;;6.53;1.60;;;;;;;17.24;38.49;98277.63;5094213;28;20038;-49
2023/03/23 00:55:16;;;;;;;3.38;1.55;;;;;;;17.19;37.36;98298.81;5093978;28;20495;-49
2023/03/23 00:57:41;;;;;;;4.20;3.15;;;;;;;17.00;38.23;98287.75;5093977;28;20119;-49
2023/03/23 01:00:10;;;;;;;4.15;1.80;;;;;;;17.04;38.02;98302.13;5075818;28;20382;-50
2023/03/23 01:02:36;;;;;;;4.32;1.92;;;;;;;17.06;37.87;98280.66;5093993;28;20047;-49
2023/03/23 01:05:03;;;;;;;2.45;1.40;;;;;;;17.15;37.51;98295.06;5075556;28;20481;-49
2023/03/23 01:07:30;;;;;;;3.92;1.48;;;;;;;17.15;37.68;98287.13;5093758;28;20076;-49
2023/03/23 01:09:57;;;;;;;3.25;1.30;;;;;;;17.08;37.96;98276.72;5093655;28;20016;-49
2023/03/23 01:12:24;;;;;;;3.92;1.77;;;;;;;16.95;37.91;98277.94;5093856;28;20450;-48
2023/03/23 01:14:51;;;;;;;5.72;1.52;;;;;;;16.85;38.34;98293.75;5093523;28;20024;-49
2023/03/23 01:17:16;;;;;;;3.40;1.45;;;;;;;16.81;38.31;98274.09;5075348;28;20405;-49
2023/03/23 01:19:42;;;;;;;4.50;1.55;;;;;;;16.90;38.30;98298.28;5093536;28;20016;-50
2023/03/23 01:22:08;;;;;;;2.83;1.70;;;;;;;17.03;38.30;98281.19;5093653;28;20024;-49
2023/03/23 01:24:33;;;;;;;7.13;2.08;;;;;;;17.09;37.71;98275.66;5093404;28;20524;-49
2023/03/23 01:27:06;;;;;;;3.03;2.10;;;;;;;17.10;37.99;98290.53;5093316;28;20520;-49
2023/03/23 01:29:35;;;;;;;3.33;1.67;;;;;;;17.09;38.30;98293.44;5059585;28;20102;-50
2023/03/23 01:32:02;;;;;;;4.72;1.95;;;;;;;17.00;38.53;98263.91;5093266;28;20035;-50
2023/03/23 01:34:28;;;;;;;3.03;1.77;;;;;;;17.01;38.26;98285.94;5075100;28;20102;-49
2023/03/23 01:36:53;;;;;;;3.80;1.75;;;;;;;16.81;38.66;98297.13;5093151;28;20177;-49
2023/03/23 01:39:20;;;;;;;5.20;1.88;;;;;;;16.73;38.79;98301.00;5093189;28;20489;-49
2023/03/23 01:41:46;;;;;;;4.80;2.22;;;;;;;16.67;38.93;98300.16;5093023;28;20028;-49
2023/03/23 01:44:17;;;;;;;2.97;1.40;;;;;;;16.66;38.82;98301.22;5074725;28;20028;-49
2023/03/23 01:46:44;;;;;;;3.08;1.50;;;;;;;16.64;38.94;98286.59;5074752;28;20039;-49
2023/03/23 01:49:18;;;;;;;3.05;1.45;;;;;;;16.68;38.31;98275.28;5092688;28;20034;-49
2023/03/23 01:51:49;;;;;;;6.50;1.13;;;;;;;16.65;38.26;98293.50;5092722;28;20040;-49
2023/03/23 01:54:20;;;;;;;1.63;0.90;;;;;;;16.58;38.08;98286.56;5092971;28;20028;-49
2023/03/23 01:56:56;;;;;;;3.00;1.20;;;;;;;16.56;38.24;98282.56;5092873;28;20074;-49
2023/03/23 01:59:25;;;;;;;1.67;1.20;;;;;;;16.47;38.24;98279.53;5093037;28;20431;-49
2023/03/23 02:01:53;;;;;;;2.85;1.42;;;;;;;16.42;37.80;98282.16;5092677;28;20028;-49
2023/03/23 02:04:21;;;;;;;1.73;1.13;;;;;;;16.41;38.30;98283.19;5092661;28;20039;-49
2023/03/23 02:06:47;;;;;;;2.95;1.55;;;;;;;16.48;38.37;98293.56;5092461;28;20024;-49
2023/03/23 02:09:16;;;;;;;3.53;1.55;;;;;;;16.55;38.28;98279.09;5092859;28;20091;-49
2023/03/23 02:11:43;;;;;;;5.00;1.67;;;;;;;16.48;38.29;98278.50;5075048;28;20029;-50
2023/03/23 02:14:09;;;;;;;1.67;1.30;;;;;;;16.43;38.52;98267.84;5074372;28;20073;-49
2023/03/23 02:16:44;;;;;;;3.40;1.50;;;;;;;16.36;39.60;98293.75;5092677;28;20423;-49
2023/03/23 02:19:55;;;;;;;6.43;2.28;;;;;;;16.30;43.67;98279.63;5092370;28;20074;-49
2023/03/23 02:22:55;;;;;;;1.75;1.38;;;;;;;16.18;40.58;98261.22;4990498;28;20058;-49
2023/03/23 02:25:57;;;;;;;3.03;1.65;;;;;;;15.98;40.42;98274.22;4990714;28;20098;-49
2023/03/23 02:28:44;;;;;;;7.63;2.30;;;;;;;15.89;42.56;98265.09;4990614;28;20117;-49
2023/03/23 02:31:47;;;;;;;4.13;1.85;;;;;;;15.93;41.95;98272.28;4990439;28;20030;-49
2023/03/23 02:34:20;;;;;;;5.28;1.70;;;;;;;15.91;40.73;98253.19;4990611;28;20042;-49
2023/03/23 02:37:03;;;;;;;2.58;1.52;;;;;;;15.90;40.73;98242.88;4974145;28;20049;-49
2023/03/23 02:39:34;;;;;;;7.32;1.77;;;;;;;15.81;41.16;98268.16;4990519;28;20034;-49
2023/03/23 02:42:09;;;;;;;2.33;1.40;;;;;;;15.85;41.52;98242.81;4990453;28;20038;-49
2023/03/23 02:44:38;;;;;;;3.70;1.50;;;;;;;15.82;40.90;98257.34;4990244;28;20100;-49
2023/03/23 02:47:08;;;;;;;4.40;1.58;;;;;;;15.73;41.96;98249.00;4990352;28;20022;-49
2023/03/23 02:49:38;;;;;;;5.70;1.63;;;;;;;15.70;41.74;98256.63;4990044;28;20038;-50
2023/03/23 02:52:12;;;;;;;5.57;2.05;;;;;;;15.71;42.02;98248.41;4990341;28;20030;-49
2023/03/23 02:54:40;;;;;;;3.33;1.50;;;;;;;15.78;41.81;98251.72;4990298;28;20569;-49
2023/03/23 02:57:07;;;;;;;8.32;2.08;;;;;;;15.82;42.32;98261.84;5072756;28;20040;-49
2023/03/23 02:59:33;;;;;;;6.90;2.80;;;;;;;15.79;43.31;98239.28;5091262;28;20035;-49
2023/03/23 03:02:05;;;;;;;5.25;2.25;;;;;;;15.82;42.83;98230.88;5091543;28;20024;-49
2023/03/23 03:04:33;;;;;;;6.07;2.50;;;;;;;15.87;42.04;98228.28;5073817;28;20350;-49
2023/03/23 03:07:37;;;;;;;4.82;2.38;;;;;;;15.83;42.30;98250.97;5092015;28;20492;-49
2023/03/23 03:10:19;;;;;;;5.43;1.83;;;;;;;15.84;41.37;98259.75;5087886;28;20048;-49
2023/03/23 03:13:18;;;;;;;2.55;1.77;;;;;;;15.83;42.00;98229.81;5073671;28;20024;-50
2023/03/23 03:15:53;;;;;;;3.10;1.73;;;;;;;15.82;41.88;98233.53;5009556;28;20042;-50
2023/03/23 03:18:26;;;;;;;4.70;1.30;;;;;;;15.86;42.19;98234.63;5009711;28;20025;-49
2023/03/23 03:20:58;;;;;;;6.75;2.00;;;;;;;15.85;41.78;98209.19;5009475;28;20563;-49
2023/03/23 03:23:25;;;;;;;5.30;1.90;;;;;;;15.80;42.08;98240.13;5009617;28;20483;-49
2023/03/23 03:25:54;;;;;;;4.18;2.08;;;;;;;15.72;42.32;98228.06;5009560;28;20034;-49
2023/03/23 03:28:22;;;;;;;4.65;1.73;;;;;;;15.75;42.24;98223.13;5009607;28;20037;-49
2023/03/23 03:30:54;;;;;;;7.38;1.42;;;;;;;15.74;42.31;98229.44;5009509;28;20030;-49
2023/03/23 03:33:25;;;;;;;2.20;1.60;;;;;;;15.77;42.02;98228.16;4993003;28;20034;-49
2023/03/23 03:35:55;;;;;;;12.55;2.15;;;;;;;15.66;42.84;98229.84;5009464;28;20153;-50
2023/03/23 03:38:21;;;;;;;8.20;1.92;;;;;;;15.65;43.85;98222.16;5009529;28;20121;-49
2023/03/23 03:40:47;;;;;;;6.72;2.58;;;;;;;15.62;43.95;98209.41;5009410;28;20456;-49
2023/03/23 03:43:12;;;;;;;4.72;3.72;;;;;;;15.57;45.05;98261.22;4992983;28;20026;-49
2023/03/23 03:45:38;;;;;;;2.58;1.75;;;;;;;15.60;43.39;98245.91;5009322;28;20046;-49
2023/03/23 03:48:04;;;;;;;3.92;2.10;;;;;;;15.64;42.88;98218.72;4992948;28;20026;-49
2023/03/23 03:50:30;;;;;;;3.08;1.67;;;;;;;15.57;43.04;98228.66;5000508;28;20050;-50
2023/03/23 03:52:57;;;;;;;2.63;1.85;;;;;;;15.53;43.10;98238.94;5041764;28;20383;-50
2023/03/23 03:55:23;;;;;;;3.50;1.88;;;;;;;15.60;43.14;98225.53;5049993;28;20048;-49
2023/03/23 03:57:49;;;;;;;4.68;1.73;;;;;;;15.62;42.94;98241.16;5051153;28;20060;-50
2023/03/23 04:00:15;;;;;;;7.00;2.10;;;;;;;15.64;42.82;98221.34;5049818;28;20048;-49
2023/03/23 04:02:53;;;;;;;5.10;1.70;;;;;;;15.63;42.79;98234.81;5050961;28;20025;-49
2023/03/23 04:05:21;;;;;;;4.07;1.80;;;;;;;15.62;41.97;98218.16;5051096;28;20069;-49
2023/03/23 04:07:49;;;;;;;3.88;1.80;;;;;;;15.55;42.21;98212.22;5050982;28;20021;-49
2023/03/23 04:10:15;;;;;;;3.08;1.60;;;;;;;15.62;41.49;98228.72;5051121;28;20029;-49
2023/03/23 04:12:40;;;;;;;3.70;1.45;;;;;;;15.66;41.25;98226.41;5053739;28;20025;-49
2023/03/23 04:15:09;;;;;;;2.53;1.33;;;;;;;15.69;41.24;98226.69;5054561;28;20111;-50
2023/03/23 04:17:35;;;;;;;2.85;1.90;;;;;;;15.77;41.27;98233.44;5054545;28;20045;-49
2023/03/23 04:20:06;;;;;;;2.92;1.63;;;;;;;15.91;41.07;98212.72;5054691;28;20056;-50
2023/03/23 04:22:32;;;;;;;2.30;1.38;;;;;;;16.01;40.51;98204.88;5054589;28;20099;-50
2023/03/23 04:25:05;;;;;;;2.78;1.52;;;;;;;15.97;40.87;98204.56;5054270;28;20112;-49
2023/03/23 04:27:31;;;;;;;3.65;1.85;;;;;;;15.92;40.83;98195.81;5054599;28;20367;-50
2023/03/23 04:29:58;;;;;;;2.10;1.42;;;;;;;15.90;41.05;98206.63;5054299;28;20048;-49
2023/03/23 04:32:28;;;;;;;4.20;1.90;;;;;;;15.92;40.88;98224.91;5054213;28;20013;-49
2023/03/23 04:35:01;;;;;;;5.20;1.73;;;;;;;15.92;40.85;98193.94;5054164;28;20033;-49
2023/03/23 04:37:33;;;;;;;4.25;1.70;;;;;;;15.96;40.91;98204.84;5054215;28;20071;-50
2023/03/23 04:40:11;;;;;;;2.40;1.27;;;;;;;15.89;41.27;98201.56;5054209;28;20032;-49
2023/03/23 04:42:37;;;;;;;3.25;1.65;;;;;;;15.88;41.30;98197.34;5053931;28;20398;-49
2023/03/23 04:45:05;;;;;;;4.90;2.08;;;;;;;15.78;41.59;98216.53;5053984;28;20068;-50
2023/03/23 04:47:39;;;;;;;2.50;1.48;;;;;;;15.72;41.86;98202.44;5054018;28;20013;-50
2023/03/23 04:50:09;;;;;;;3.67;1.75;;;;;;;15.59;41.98;98218.63;5064516;28;20037;-50
2023/03/23 04:52:37;;;;;;;7.55;2.15;;;;;;;15.47;42.40;98204.72;5076256;28;20012;-50
2023/03/23 04:55:05;;;;;;;3.50;1.98;;;;;;;15.44;42.24;98221.88;5094270;28;20439;-49
2023/03/23 04:57:32;;;;;;;6.82;2.13;;;;;;;15.47;42.53;98221.38;5094257;28;20393;-49
2023/03/23 04:59:59;;;;;;;6.53;1.95;;;;;;;15.49;42.19;98223.78;5075750;28;20428;-49
2023/03/23 05:02:25;;;;;;;4.22;2.35;;;;;;;15.56;42.36;98219.13;5093823;28;20020;-50
2023/03/23 05:04:51;;;;;;;3.63;1.70;;;;;;;15.67;41.84;98226.13;5093778;28;20397;-50
2023/03/23 05:07:16;;;;;;;6.88;2.05;;;;;;;15.75;41.34;98241.66;5093768;28;20499;-50
2023/03/23 05:09:46;;;;;;;4.10;1.73;;;;;;;15.75;41.62;98222.31;5058861;28;20028;-49
2023/03/23 05:12:12;;;;;;;4.65;2.13;;;;;;;15.80;41.21;98235.63;5093728;28;20012;-49
2023/03/23 05:14:41;;;;;;;6.68;2.22;;;;;;;15.82;41.46;98241.47;5093661;28;20065;-49
2023/03/23 05:17:07;;;;;;;5.93;1.90;;;;;;;15.87;41.01;98246.00;5093505;28;20069;-49
2023/03/23 05:19:33;;;;;;;3.38;2.03;;;;;;;15.82;41.49;98235.38;5093735;28;20390;-49
2023/03/23 05:22:02;;;;;;;3.22;1.70;;;;;;;15.78;41.74;98219.97;5075189;28;20027;-50
2023/03/23 05:24:31;;;;;;;3.65;1.95;;;;;;;15.76;41.97;98247.72;5092720;28;20073;-49
2023/03/23 05:26:57;;;;;;;3.97;2.65;;;;;;;15.65;42.03;98222.94;5093577;28;20103;-50
2023/03/23 05:29:23;;;;;;;5.95;2.15;;;;;;;15.60;42.18;98233.47;5093398;28;20020;-49
2023/03/23 05:31:49;;;;;;;6.68;2.30;;;;;;;15.60;42.37;98228.19;5093178;28;20149;-50
2023/03/23 05:34:15;;;;;;;7.40;2.72;;;;;;;15.68;42.63;98233.03;5075181;28;20099;-50
2023/03/23 05:36:43;;;;;;;3.72;2.03;;;;;;;15.89;42.06;98246.56;5093427;28;20020;-49
2023/03/23 05:39:11;;;;;;;8.48;2.72;;;;;;;15.86;42.52;98244.41;5093156;28;20498;-49
2023/03/23 05:41:37;;;;;;;5.30;2.17;;;;;;;15.86;42.10;98273.53;5093348;28;20024;-49
2023/03/23 05:44:03;;;;;;;4.53;2.67;;;;;;;15.72;42.49;98249.25;5092978;28;20020;-49
2023/03/23 05:46:29;;;;;;;5.97;2.20;;;;;;;15.65;42.59;98248.59;5074770;28;20026;-49
2023/03/23 05:48:54;;;;;;;8.32;2.88;;;;;;;15.59;42.77;98250.38;5093220;28;20021;-50
2023/03/23 05:51:20;;;;;;;12.02;2.80;;;;;;;15.57;42.85;98260.38;5071112;28;20051;-50
2023/03/23 05:53:47;;;;;;;6.03;1.90;;;;;;;15.64;42.76;98279.53;5072596;28;20095;-49
2023/03/23 05:56:14;;;;;;;7.90;2.80;;;;;;;15.62;43.13;98276.34;5072514;28;20079;-49
2023/03/23 05:58:39;;;;;;;9.07;2.40;;;;;;;15.61;43.06;98261.50;5072727;28;20099;-49
2023/03/23 06:01:09;;;;;;;5.90;2.50;;;;;;;15.76;42.82;98269.69;5072478;28;20252;-49
2023/03/23 06:03:37;;;;;;;4.60;2.40;;;;;;;15.76;42.86;98267.03;5072366;28;20052;-50
2023/03/23 06:06:04;;;;;;;2.67;1.92;;;;;;;15.82;42.75;98277.72;5071239;28;20071;-49
2023/03/23 06:08:30;;;;;;;4.28;2.08;;;;;;;15.91;42.23;98276.22;5072525;28;20056;-50
2023/03/23 06:10:56;;;;;;;7.55;2.30;;;;;;;15.79;42.25;98281.63;5070942;28;20063;-49
2023/03/23 06:13:23;;;;;;;4.13;2.13;;;;;;;15.82;42.81;98296.22;5072146;28;20082;-49
2023/03/23 06:15:49;;;;;;;3.25;2.00;;;;;;;15.97;42.21;98267.31;5072167;28;20096;-49
2023/03/23 06:18:14;;;;;;;10.95;3.40;;;;;;;16.09;42.29;98298.94;5072135;28;20020;-50
2023/03/23 06:20:41;;;;;;;5.00;2.15;;;;;;;16.17;41.92;98304.63;5072042;28;20035;-49
2023/03/23 06:23:08;;;;;;;10.13;2.83;;;;;;;16.21;41.88;98290.91;5072026;28;20020;-50
2023/03/23 06:25:34;;;;;;;8.32;2.53;;;;;;;16.32;41.97;98305.88;5072084;28;20055;-49
2023/03/23 06:28:00;;;;;;;8.90;3.13;;;;;;;16.46;41.75;98314.22;5070868;28;20446;-49
2023/03/23 06:30:30;;;;;;;11.73;3.35;;;;;;;16.57;41.54;98316.75;5070691;28;20032;-49
2023/03/23 06:32:56;;;;;;;9.82;3.17;;;;;;;16.65;41.74;98322.66;5070714;28;20325;-49
2023/03/23 06:35:22;;;;;;;14.80;3.25;;;;;;;16.65;41.62;98335.91;5070990;28;20029;-49
2023/03/23 06:37:48;;;;;;;5.57;2.78;;;;;;;16.89;41.57;98329.28;5071912;28;20063;-49
2023/03/23 06:40:13;;;;;;;5.68;2.75;;;;;;;17.13;41.76;98336.94;5070610;28;20025;-49
2023/03/23 06:42:39;;;;;;;9.05;3.35;;;;;;;17.15;41.13;98334.84;5053843;28;20071;-49
2023/03/23 06:45:06;;;;;;;12.75;3.33;;;;;;;17.16;40.99;98331.13;5071720;28;20486;-49
2023/03/23 06:47:32;;;;;;;14.30;3.63;;;;;;;17.15;40.98;98340.94;5071794;28;20033;-49
2023/03/23 06:49:58;;;;;;;10.77;3.17;;;;;;;17.22;40.93;98324.81;5075841;28;20082;-50
2023/03/23 06:52:25;;;;;;;4.10;2.13;;;;;;;17.31;40.33;98328.63;5091946;28;20055;-49
2023/03/23 06:54:51;;;;;;;6.10;2.38;;;;;;;17.19;40.71;98328.00;5073770;28;20032;-49
2023/03/23 06:57:17;;;;;;;5.88;2.47;;;;;;;17.00;41.00;98322.22;5091960;28;20023;-49
2023/03/23 06:59:43;;;;;;;7.45;2.83;;;;;;;16.94;41.22;98320.59;5091912;28;20020;-49
2023/03/23 07:02:11;;;;;;;12.32;4.35;;;;;;;16.91;41.81;98316.59;5091825;28;20174;-49
2023/03/23 07:04:38;;;;;;;9.00;2.92;;;;;;;16.81;41.69;98313.03;5073618;28;20028;-49
2023/03/23 07:07:05;;;;;;;4.30;2.83;;;;;;;16.65;42.00;98317.34;5091801;28;20025;-49
2023/03/23 07:09:31;;;;;;;7.13;2.63;;;;;;;16.46;42.26;98311.56;5092118;28;20039;-49
2023/03/23 07:11:56;;;;;;;5.20;2.28;;;;;;;16.43;42.62;98320.81;5073591;28;20493;-49
2023/03/23 07:14:22;;;;;;;5.85;2.70;;;;;;;16.34;42.64;98324.97;5091791;28;20021;-50
2023/03/23 07:16:48;;;;;;;5.47;2.70;;;;;;;16.22;43.18;98318.97;5091618;28;20490;-49
2023/03/23 07:19:14;;;;;;;5.28;2.50;;;;;;;16.24;42.61;98316.88;5091709;28;20028;-49
2023/03/23 07:21:40;;;;;;;10.73;2.58;;;;;;;16.09;42.89;98341.31;5091655;28;20050;-50
2023/03/23 07:24:11;;;;;;;3.88;2.55;;;;;;;16.00;43.25;98329.53;5091819;28;20557;-50
2023/03/23 07:26:37;;;;;;;6.70;2.33;;;;;;;16.16;42.71;98331.34;5074398;28;20052;-50
2023/03/23 07:29:03;;;;;;;4.63;2.28;;;;;;;16.13;43.16;98322.03;5091909;28;20051;-49
2023/03/23 07:31:28;;;;;;;6.32;2.58;;;;;;;16.10;42.93;98327.84;5091590;28;20489;-49
2023/03/23 07:33:54;;;;;;;12.55;3.60;;;;;;;16.12;43.67;98325.75;5073588;28;20016;-49
2023/03/23 07:36:20;;;;;;;6.07;2.30;;;;;;;16.13;43.45;98326.53;5073331;28;20097;-49
2023/03/23 07:38:45;;;;;;;3.97;2.10;;;;;;;16.16;43.03;98326.84;5091810;28;20056;-49
2023/03/23 07:41:11;;;;;;;4.30;2.63;;;;;;;16.20;43.39;98335.13;5073376;28;20455;-49
2023/03/23 07:43:37;;;;;;;4.53;2.70;;;;;;;16.32;43.21;98319.13;5091649;28;20103;-50
2023/03/23 07:46:02;;;;;;;5.10;2.70;;;;;;;16.38;43.41;98320.78;5091938;28;20485;-49
2023/03/23 07:48:28;;;;;;;6.68;3.10;;;;;;;16.53;42.42;98315.63;5095531;28;20024;-49
2023/03/23 07:50:53;;;;;;;8.20;4.82;;;;;;;16.67;42.60;98361.09;5095024;28;20071;-49
2023/03/23 07:53:21;;;;;;;6.05;2.75;;;;;;;16.74;42.24;98327.28;5095507;28;20061;-49
2023/03/23 07:55:47;;;;;;;6.55;2.65;;;;;;;16.74;41.94;98334.41;5076866;28;20039;-49
2023/03/23 07:58:18;;;;;;;4.88;2.88;;;;;;;16.66;42.06;98326.88;5076931;28;20028;-49
2023/03/23 08:00:43;;;;;;;4.88;2.30;;;;;;;16.54;42.15;98317.25;5095139;28;20028;-50
2023/03/23 08:03:09;;;;;;;8.07;2.85;;;;;;;16.59;42.16;98327.09;5076797;28;20055;-49
2023/03/23 08:05:35;;;;;;;5.65;2.63;;;;;;;16.53;42.61;98322.78;5095225;28;20027;-49
2023/03/23 08:08:01;;;;;;;4.18;2.08;;;;;;;16.54;42.62;98311.94;5076739;28;20024;-49
2023/03/23 08:10:27;;;;;;;3.63;2.70;;;;;;;16.54;42.77;98333.16;5094845;28;20024;-49
2023/03/23 08:12:55;;;;;;;4.90;2.75;;;;;;;16.55;42.45;98318.84;5076712;28;20020;-49
2023/03/23 08:15:22;;;;;;;4.80;3.00;;;;;;;16.44;43.06;98343.63;5076529;28;20393;-50
2023/03/23 08:17:50;;;;;;;6.55;2.92;;;;;;;16.46;43.21;98330.09;5094761;28;20012;-49
2023/03/23 08:20:18;;;;;;;5.55;3.03;;;;;;;16.40;43.23;98315.22;5094929;28;20095;-50
2023/03/23 08:22:48;;;;;;;3.28;2.22;;;;;;;16.25;43.32;98321.13;5094842;28;20130;-49
2023/03/23 08:25:17;;;;;;;5.47;2.75;;;;;;;16.13;43.93;98326.53;5094689;28;20099;-50
2023/03/23 08:27:43;;;;;;;6.45;2.47;;;;;;;16.24;43.98;98309.75;5094620;28;20520;-49
2023/03/23 08:30:15;;;;;;;4.70;2.72;;;;;;;16.41;43.61;98345.97;5076371;28;20134;-49
2023/03/23 08:32:41;;;;;;;7.68;3.33;;;;;;;16.45;44.24;98345.22;5094506;28;20120;-50
2023/03/23 08:35:09;;;;;;;10.88;2.90;;;;;;;16.60;43.96;98354.38;5076269;28;20024;-49
2023/03/23 08:37:35;;;;;;;8.85;2.83;;;;;;;16.64;43.54;98348.34;5076226;28;20023;-49
2023/03/23 08:40:07;;;;;;;6.65;2.70;;;;;;;16.65;43.70;98357.91;5059545;28;20031;-49
2023/03/23 08:42:33;;;;;;;6.97;2.97;;;;;;;16.70;43.57;98351.84;5094203;28;20039;-49
2023/03/23 08:44:58;;;;;;;5.07;2.78;;;;;;;16.65;43.67;98368.50;5094260;28;20024;-49
2023/03/23 08:47:25;;;;;;;4.82;3.22;;;;;;;16.60;44.30;98326.06;5076049;28;20024;-49
2023/03/23 08:49:53;;;;;;;16.08;8.27;;;;;;;16.54;44.10;98356.16;5075778;28;20040;-49
2023/03/23 08:52:19;;;;;;;13.13;9.88;;;;;;;16.60;44.63;98355.19;5094102;28;20504;-49
2023/03/23 08:54:47;;;;;;;8.60;5.07;;;;;;;16.78;44.46;98360.19;5059361;28;20077;-49
2023/03/23 08:57:18;;;;;;;9.13;4.47;;;;;;;16.93;44.59;98377.31;5075865;28;20532;-49
2023/03/23 08:59:44;;;;;;;6.63;3.42;;;;;;;17.07;44.53;98378.53;5076098;28;20024;-49
2023/03/23 09:02:14;;;;;;;7.82;3.95;;;;;;;17.10;43.84;98372.72;5093833;28;20103;-49
2023/03/23 09:04:42;;;;;;;7.63;3.63;;;;;;;17.01;44.45;98381.38;5093756;28;20020;-49
2023/03/23 09:07:10;;;;;;;10.63;4.75;;;;;;;17.00;45.03;98403.63;5093766;28;20016;-49
2023/03/23 09:09:38;;;;;;;6.93;4.40;;;;;;;17.11;45.66;98397.38;5075559;28;20024;-49
2023/03/23 09:12:04;;;;;;;7.85;4.47;;;;;;;17.06;46.20;98397.31;5093665;28;20024;-49
2023/03/23 09:14:30;;;;;;;7.57;4.15;;;;;;;17.13;46.23;98385.47;5093711;28;20121;-49
2023/03/23 09:16:55;;;;;;;16.80;7.15;;;;;;;17.16;46.91;98366.41;5093640;28;20548;-49
2023/03/23 09:19:21;;;;;;;6.75;5.00;;;;;;;17.33;45.02;98347.72;5093553;28;20073;-49
2023/03/23 09:21:46;;;;;;;17.10;8.30;;;;;;;17.21;45.32;98386.09;5075324;28;20081;-49
2023/03/23 09:24:12;;;;;;;12.35;5.47;;;;;;;17.20;45.63;98411.78;5093438;28;20086;-49
2023/03/23 09:26:38;;;;;;;6.97;4.85;;;;;;;17.27;45.87;98401.00;5093323;28;20031;-49
2023/03/23 09:29:04;;;;;;;8.88;5.07;;;;;;;17.25;46.11;98379.22;5075437;28;20073;-49
2023/03/23 09:31:31;;;;;;;8.32;5.38;;;;;;;17.33;45.93;98365.50;5058508;28;20024;-49
2023/03/23 09:33:59;;;;;;;5.78;4.78;;;;;;;17.32;46.29;98359.38;5093332;28;20024;-49
2023/03/23 09:36:31;;;;;;;10.55;5.45;;;;;;;17.39;46.16;98371.66;5093287;28;20557;-49
2023/03/23 09:38:58;;;;;;;8.45;4.85;;;;;;;17.31;46.39;98359.66;5093373;28;20024;-49
2023/03/23 09:41:39;;;;;;;13.05;6.07;;;;;;;17.37;46.49;98374.56;5075034;28;20114;-49
2023/03/23 09:44:10;;;;;;;8.00;6.40;;;;;;;17.31;46.84;98388.81;5093449;28;20032;-49
2023/03/23 09:47:07;;;;;;;12.25;6.72;;;;;;;17.62;47.47;98381.91;5058308;28;20048;-49
2023/03/23 09:50:04;;;;;;;10.50;6.57;;;;;;;17.99;46.24;98396.28;5009621;28;20559;-50
2023/03/23 09:52:46;;;;;;;10.43;6.15;;;;;;;18.40;46.04;98394.66;4991304;28;20674;-49
2023/03/23 09:55:15;;;;;;;5.47;4.63;;;;;;;18.60;44.13;98414.44;4991274;28;20045;-49
2023/03/23 09:57:52;;;;;;;9.70;6.80;;;;;;;18.63;44.55;98412.03;4974967;28;20030;-49
2023/03/23 10:00:29;;;;;;;11.55;5.57;;;;;;;18.80;43.61;98416.41;4991051;28;20050;-47
2023/03/23 10:03:05;;;;;;;9.00;6.28;;;;;;;18.89;43.44;98393.53;4990935;28;20061;-46
2023/03/23 10:05:55;;;;;;;10.40;5.95;;;;;;;19.00;43.67;98397.84;4991102;28;20034;-46
2023/03/23 10:08:31;;;;;;;11.55;5.65;;;;;;;18.96;42.85;98402.09;4990609;28;20046;-47
2023/03/23 10:11:21;;;;;;;14.30;7.43;;;;;;;19.13;43.86;98407.97;4990768;28;20034;-47
2023/03/23 10:13:56;;;;;;;6.47;4.80;;;;;;;19.59;41.49;98374.50;4990862;28;20045;-47
2023/03/23 10:16:30;;;;;;;10.48;5.55;;;;;;;20.11;41.13;98400.81;4990894;28;20026;-47
2023/03/23 10:19:20;;;;;;;9.57;4.93;;;;;;;20.60;39.04;98378.03;4974508;28;20046;-47
2023/03/23 10:22:03;;;;;;;9.75;5.43;;;;;;;20.98;38.60;98381.06;4990826;28;20038;-47
2023/03/23 10:25:00;;;;;;;7.03;4.78;;;;;;;20.93;38.37;98395.22;4990706;28;20113;-47
2023/03/23 10:27:28;;;;;;;8.30;4.70;;;;;;;20.70;38.52;98402.00;5051450;28;20522;-47
2023/03/23 10:30:02;;;;;;;8.50;5.38;;;;;;;20.34;39.68;98417.28;5050788;28;20051;-47
2023/03/23 10:32:43;;;;;;;13.48;6.57;;;;;;;20.26;40.01;98409.84;5051996;28;20040;-47
2023/03/23 10:35:19;;;;;;;9.80;5.60;;;;;;;20.35;40.21;98405.56;5051965;28;20024;-47
2023/03/23 10:37:50;;;;;;;17.30;8.43;;;;;;;20.69;40.09;98413.75;5033989;28;20036;-46
2023/03/23 10:40:21;;;;;;;7.53;4.95;;;;;;;20.94;38.42;98394.13;5051929;28;20103;-47
2023/03/23 10:42:47;;;;;;;8.25;4.82;;;;;;;20.90;39.43;98401.09;5051709;28;20032;-46
2023/03/23 10:45:24;;;;;;;7.93;5.15;;;;;;;20.76;39.20;98413.44;5051683;28;20057;-47
2023/03/23 10:47:59;;;;;;;6.28;4.32;;;;;;;20.47;39.52;98418.59;5033939;28;20115;-47
2023/03/23 10:50:32;;;;;;;6.70;4.65;;;;;;;20.10;40.22;98415.22;5067480;28;20059;-47
2023/03/23 10:52:59;;;;;;;7.72;5.10;;;;;;;19.63;41.28;98418.16;5073761;28;20417;-47
2023/03/23 10:55:39;;;;;;;7.35;5.07;;;;;;;19.26;44.87;98421.84;5073807;28;20519;-48
2023/03/23 10:58:29;;;;;;;7.68;5.28;;;;;;;18.45;47.70;98429.25;5091874;28;20032;-46
2023/03/23 11:00:56;;;;;;;7.38;4.45;;;;;;;17.73;49.91;98427.94;5091934;28;20032;-46
2023/03/23 11:03:26;;;;;;;6.85;4.78;;;;;;;17.38;51.02;98431.84;5091838;28;20020;-47
2023/03/23 11:06:01;;;;;;;9.30;4.85;;;;;;;17.33;51.40;98415.91;5091850;28;20046;-47
2023/03/23 11:08:34;;;;;;;7.53;5.70;;;;;;;17.40;53.21;98421.00;5091859;28;20099;-46
2023/03/23 11:11:15;;;;;;;6.95;4.55;;;;;;;17.48;52.03;98418.69;5073658;28;20489;-47
2023/03/23 11:13:48;;;;;;;6.78;4.68;;;;;;;17.53;51.32;98409.97;5091860;28;20028;-46
2023/03/23 11:16:52;;;;;;;10.18;5.53;;;;;;;17.57;52.22;98413.72;5073497;28;20051;-46
2023/03/23 11:19:39;;;;;;;9.13;6.03;;;;;;;17.81;52.14;98432.78;5050067;28;20084;-47
2023/03/23 11:22:05;;;;;;;9.50;5.57;;;;;;;18.15;50.07;98422.69;5093925;28;20032;-47
2023/03/23 11:24:47;;;;;;;9.68;5.20;;;;;;;18.34;48.49;98425.72;5077458;28;20430;-47
2023/03/23 11:27:15;;;;;;;9.00;5.50;;;;;;;18.36;48.07;98412.97;5095776;28;20089;-47
2023/03/23 11:29:59;;;;;;;6.22;4.88;;;;;;;18.64;47.89;98429.59;5095913;28;20016;-46
2023/03/23 11:32:28;;;;;;;8.07;5.55;;;;;;;19.22;46.37;98434.88;5095781;28;20032;-47
2023/03/23 11:35:00;;;;;;;9.38;5.07;;;;;;;19.74;44.62;98435.75;5095662;28;20020;-47
2023/03/23 11:37:36;;;;;;;7.13;5.25;;;;;;;20.16;43.75;98424.00;5095580;28;20032;-47
2023/03/23 11:40:13;;;;;;;11.10;5.35;;;;;;;20.74;43.27;98424.41;5095566;28;20389;-47
2023/03/23 11:42:56;;;;;;;11.32;4.97;;;;;;;21.47;40.97;98422.97;5095465;28;20024;-47
2023/03/23 11:45:31;;;;;;;9.93;4.45;;;;;;;21.69;39.88;98430.53;5095436;28;20031;-47